createdAt,value
2022-12-20T00:02:08.309Z,0.32
2022-12-20T00:07:07.650Z,0.52
2022-12-20T00:12:09.441Z,0.61
2022-12-20T00:17:13.145Z,0.70
2022-12-20T00:22:12.525Z,0.27
2022-12-20T00:27:13.625Z,0.19
2022-12-20T00:32:13.082Z,0.28
2022-12-20T00:37:11.786Z,0.53
2022-12-20T00:42:10.764Z,0.44
2022-12-20T00:47:11.442Z,0.62
2022-12-20T00:52:10.244Z,1.01
2022-12-20T00:57:09.147Z,1.23
2022-12-20T01:02:08.038Z,1.26
2022-12-20T01:07:08.874Z,0.77
2022-12-20T01:12:08.204Z,0.73
2022-12-20T01:17:07.306Z,1.08
2022-12-20T01:22:06.150Z,1.15
2022-12-20T01:27:06.544Z,1.25
2022-12-20T01:32:05.731Z,1.31
2022-12-20T01:37:04.677Z,1.43
2022-12-20T01:42:05.376Z,1.18
2022-12-20T01:47:04.594Z,1.39
2022-12-20T01:52:07.554Z,1.52
2022-12-20T01:57:12.665Z,1.62
2022-12-20T02:02:13.372Z,1.18
2022-12-20T02:07:15.137Z,1.20
2022-12-20T02:12:18.985Z,1.18
2022-12-20T02:17:30.842Z,1.24
2022-12-20T02:22:46.036Z,1.06
2022-12-20T02:27:55.746Z,1.07
2022-12-20T02:33:02.289Z,0.96
2022-12-20T02:38:06.222Z,0.63
2022-12-20T02:43:29.037Z,0.49
2022-12-20T02:48:33.609Z,0.77
2022-12-20T02:53:33.524Z,0.88
2022-12-20T02:58:39.498Z,0.82
2022-12-20T03:03:40.388Z,0.69
2022-12-20T03:08:39.399Z,0.77
2022-12-20T03:13:38.351Z,1.00
2022-12-20T03:18:42.082Z,1.21
2022-12-20T03:23:41.066Z,1.33
2022-12-20T03:28:39.889Z,1.35
2022-12-20T03:33:42.076Z,1.33
2022-12-20T03:38:43.336Z,1.26
2022-12-20T03:43:42.319Z,0.83
2022-12-20T03:48:42.806Z,0.89
2022-12-20T03:53:41.600Z,1.00
2022-12-20T03:58:40.844Z,1.06
2022-12-20T04:03:40.904Z,0.90
2022-12-20T04:08:41.087Z,0.80
2022-12-20T04:13:41.795Z,0.65
2022-12-20T04:18:42.046Z,0.75
2022-12-20T04:23:44.605Z,0.82
2022-12-20T04:28:44.403Z,0.85
2022-12-20T04:33:43.921Z,0.81
2022-12-20T04:38:45.396Z,0.89
2022-12-20T04:43:44.474Z,0.64
2022-12-20T04:48:59.825Z,0.82
2022-12-20T04:54:01.637Z,0.99
2022-12-20T04:59:20.795Z,0.94
2022-12-20T05:04:23.080Z,0.78
2022-12-20T05:09:23.476Z,0.70
2022-12-20T05:14:23.607Z,0.85
2022-12-20T05:19:22.728Z,0.97
2022-12-20T05:24:39.196Z,1.12
2022-12-20T05:30:02.264Z,0.96
2022-12-20T05:35:01.621Z,0.92
2022-12-20T05:40:01.863Z,0.75
2022-12-20T05:45:02.919Z,0.76
2022-12-20T05:50:06.180Z,0.82
2022-12-20T05:55:11.728Z,0.76
2022-12-20T06:00:15.658Z,0.82
2022-12-20T06:05:15.723Z,0.45
2022-12-20T06:10:14.905Z,0.28
2022-12-20T06:15:25.229Z,0.00
2022-12-20T06:20:24.806Z,-0.16
2022-12-20T06:25:24.453Z,0.02
2022-12-20T06:30:31.861Z,-0.03
2022-12-20T06:35:42.123Z,0.04
2022-12-20T06:40:41.165Z,0.23
2022-12-20T06:45:42.541Z,0.40
2022-12-20T06:50:43.828Z,0.75
2022-12-20T06:55:43.230Z,1.02
2022-12-20T07:00:43.910Z,1.12
2022-12-20T07:05:42.947Z,1.14
2022-12-20T07:10:42.007Z,1.10
2022-12-20T07:15:41.025Z,1.13
2022-12-20T07:20:41.310Z,0.97
2022-12-20T07:25:40.273Z,1.14
2022-12-20T07:30:39.283Z,0.98
2022-12-20T07:35:38.330Z,1.06
2022-12-20T07:40:42.304Z,1.33
2022-12-20T07:45:41.447Z,1.38
2022-12-20T07:50:40.691Z,1.08
2022-12-20T07:56:03.093Z,1.35
2022-12-20T08:01:10.596Z,1.59
2022-12-20T08:06:10.635Z,1.73
2022-12-20T08:11:35.937Z,1.48
2022-12-20T08:16:34.947Z,1.80
2022-12-20T08:21:34.203Z,1.79
2022-12-20T08:26:40.626Z,1.83
2022-12-20T08:31:44.431Z,1.88
2022-12-20T08:36:46.547Z,2.09
2022-12-20T08:41:46.726Z,2.41
2022-12-20T08:46:46.089Z,2.66
2022-12-20T08:51:44.992Z,2.88
2022-12-20T08:57:04.316Z,2.92
2022-12-20T09:02:32.726Z,2.91
2022-12-20T09:07:57.484Z,2.90
2022-12-20T09:13:18.354Z,3.06
2022-12-20T09:18:18.027Z,3.42
2022-12-20T09:23:16.913Z,3.07
2022-12-20T09:28:17.487Z,2.99
2022-12-20T09:33:16.494Z,3.12
2022-12-20T09:38:27.383Z,3.17
2022-12-20T09:43:57.306Z,3.31
2022-12-20T09:49:17.012Z,3.29
2022-12-20T09:54:25.047Z,3.30
2022-12-20T09:59:25.964Z,3.36
2022-12-20T10:04:27.260Z,3.42
2022-12-20T10:09:56.849Z,3.74
2022-12-20T10:15:11.447Z,4.77
2022-12-20T10:20:30.083Z,5.60
2022-12-20T10:25:32.798Z,6.20
2022-12-20T10:30:35.736Z,6.45
2022-12-20T10:35:40.623Z,7.09
2022-12-20T10:46:04.949Z,7.60
2022-12-20T10:51:16.544Z,7.40
2022-12-20T10:56:21.656Z,7.73
2022-12-20T11:01:23.971Z,8.39
2022-12-20T11:06:25.629Z,8.78
2022-12-20T11:11:26.796Z,9.23
2022-12-20T11:16:34.950Z,8.98
2022-12-20T11:21:43.481Z,8.78
2022-12-20T11:26:59.008Z,8.96
2022-12-20T11:32:07.582Z,8.69
2022-12-20T11:37:20.144Z,8.53
2022-12-20T11:42:26.141Z,9.22
2022-12-20T11:47:46.324Z,9.68
2022-12-20T11:52:49.170Z,9.72
2022-12-20T11:58:17.411Z,9.86
2022-12-20T12:03:24.162Z,9.46
2022-12-20T12:08:31.649Z,9.44
2022-12-20T12:13:42.032Z,10.00
2022-12-20T12:18:43.596Z,10.72
2022-12-20T12:24:11.803Z,10.16
2022-12-20T12:29:22.751Z,9.56
2022-12-20T12:34:48.430Z,10.01
2022-12-20T12:40:27.815Z,10.25
2022-12-20T12:45:48.226Z,10.70
2022-12-20T12:50:51.657Z,10.78
2022-12-20T12:55:51.221Z,11.08
2022-12-20T13:00:54.717Z,10.07
2022-12-20T13:06:21.687Z,10.25
2022-12-20T13:11:47.139Z,10.54
2022-12-20T13:17:11.414Z,10.89
2022-12-20T13:22:26.585Z,10.95
2022-12-20T13:28:11.838Z,10.70
2022-12-20T13:33:48.036Z,10.67
2022-12-20T13:39:52.764Z,10.64
2022-12-20T13:44:54.643Z,10.51
2022-12-20T13:49:56.600Z,10.33
2022-12-20T13:55:00.916Z,10.30
2022-12-20T14:00:09.275Z,9.45
2022-12-20T14:05:18.888Z,9.22
2022-12-20T14:10:22.217Z,9.19
2022-12-20T14:15:30.291Z,9.20
2022-12-20T14:20:35.177Z,8.76
2022-12-20T14:25:44.244Z,8.53
2022-12-20T14:30:46.183Z,8.21
2022-12-20T14:35:49.532Z,7.89
2022-12-20T14:40:56.100Z,7.64
2022-12-20T14:46:10.010Z,7.50
2022-12-20T14:51:10.911Z,7.26
2022-12-20T14:56:16.056Z,6.86
2022-12-20T15:01:47.110Z,6.58
2022-12-20T15:06:50.327Z,6.24
2022-12-20T15:11:51.735Z,5.91
2022-12-20T15:16:50.883Z,5.68
2022-12-20T15:21:51.824Z,5.24
2022-12-20T15:27:03.600Z,5.05
2022-12-20T15:44:32.585Z,3.76
2022-12-20T15:55:01.432Z,3.35
2022-12-20T16:00:02.155Z,2.96
2022-12-20T16:56:32.083Z,0.15
2022-12-20T17:01:37.182Z,0.35
2022-12-20T17:06:36.238Z,0.49
2022-12-20T17:11:36.791Z,0.59
2022-12-20T17:16:35.697Z,0.70
2022-12-20T17:26:58.174Z,0.85
2022-12-20T17:31:57.557Z,0.63
2022-12-20T17:36:58.108Z,0.37
2022-12-20T17:41:58.506Z,0.27
2022-12-20T17:46:58.565Z,0.26
2022-12-20T17:51:57.436Z,0.17
2022-12-20T17:57:00.594Z,0.25
2022-12-20T18:01:59.662Z,0.11
2022-12-20T18:07:02.375Z,0.04
2022-12-20T18:12:02.821Z,0.18
2022-12-20T18:17:01.851Z,0.13
2022-12-20T18:22:04.641Z,-0.10
2022-12-20T18:27:06.542Z,0.10
2022-12-20T18:32:08.292Z,0.08
2022-12-20T18:37:11.032Z,0.10
2022-12-20T18:42:11.374Z,0.17
2022-12-20T18:47:11.341Z,0.08
2022-12-20T18:52:12.419Z,0.03
2022-12-20T18:57:12.904Z,0.09
2022-12-20T19:02:14.700Z,-0.08
2022-12-20T19:07:13.836Z,0.18
2022-12-20T19:12:14.189Z,0.26
2022-12-20T19:17:15.210Z,0.08
2022-12-20T19:22:14.477Z,0.25
2022-12-20T19:27:18.569Z,0.29
2022-12-20T19:32:18.599Z,-0.20
2022-12-20T19:37:18.636Z,-0.16
2022-12-20T19:42:26.364Z,-0.18
2022-12-20T19:47:26.690Z,-0.10
2022-12-20T19:52:29.097Z,0.10
2022-12-20T19:57:29.726Z,0.04
2022-12-20T20:02:29.318Z,0.25
2022-12-20T20:07:31.493Z,0.37
2022-12-20T20:12:32.083Z,0.60
2022-12-20T20:17:32.041Z,0.61
2022-12-20T20:22:33.751Z,0.75
2022-12-20T20:27:37.016Z,0.77
2022-12-20T20:32:48.529Z,0.94
2022-12-20T20:37:59.318Z,0.75
2022-12-20T20:43:07.040Z,0.85
2022-12-20T20:48:09.387Z,0.70
2022-12-20T20:53:17.418Z,0.88
2022-12-20T20:58:18.091Z,0.97
2022-12-20T21:03:20.598Z,1.08
2022-12-20T21:08:23.652Z,1.18
2022-12-20T21:13:34.220Z,1.16
2022-12-20T21:18:35.829Z,0.95
2022-12-20T21:23:36.708Z,1.10
2022-12-20T21:28:37.349Z,1.12
2022-12-20T21:33:36.311Z,0.69
2022-12-20T21:38:35.833Z,0.85
2022-12-20T21:44:07.626Z,1.00
2022-12-20T21:49:06.458Z,0.86
2022-12-20T21:54:05.508Z,0.80
2022-12-20T21:59:06.242Z,1.02
2022-12-20T22:04:07.148Z,1.01
2022-12-20T22:09:07.910Z,0.93
2022-12-20T22:14:08.640Z,0.93
2022-12-20T22:19:09.126Z,1.09
2022-12-20T22:24:08.803Z,0.66
2022-12-20T22:29:09.787Z,0.65
2022-12-20T22:34:08.801Z,0.62
2022-12-20T22:39:07.706Z,0.47
2022-12-20T22:44:07.355Z,0.21
2022-12-20T22:49:07.763Z,0.42
2022-12-20T22:54:06.683Z,0.28
2022-12-20T22:59:06.509Z,0.40
2022-12-20T23:04:05.462Z,0.51
2022-12-20T23:09:05.953Z,0.67
2022-12-20T23:14:22.926Z,0.24
2022-12-20T23:19:21.864Z,0.36
2022-12-20T23:24:22.082Z,0.27
2022-12-20T23:29:20.841Z,0.19
2022-12-20T23:34:19.971Z,0.12
2022-12-20T23:39:18.803Z,-0.28
2022-12-20T23:44:18.982Z,-0.09
2022-12-20T23:49:18.042Z,-0.15
2022-12-20T23:54:19.663Z,0.09
2022-12-20T23:59:19.809Z,0.12
